Time;durP1;ratioP1;P1;durP2;ratioP2;P2;SDS_P1;SDS_P2;PMS_P1;PMS_P2;Temp;Humidity;BMP_temperature;BMP_pressure;BME280_temperature;BME280_humidity;BME280_pressure;Samples;Min_cycle;Max_cycle;Signal;HPM_P1;HPM_P2
2023/12/04 00:00:04;;;;;;;33.08;15.02;;;;;;;-1.85;76.68;100250.50;4937812;28;20478;-85
2023/12/04 00:02:38;;;;;;;36.20;16.33;;;;;;;-1.87;75.76;100247.94;4948535;28;20055;-86
2023/12/04 00:05:06;;;;;;;37.97;16.52;;;;;;;-1.91;76.39;100240.28;4921365;28;20043;-86
2023/12/04 00:07:32;;;;;;;33.10;14.98;;;;;;;-1.80;75.34;100235.59;4938851;28;20050;-85
2023/12/04 00:09:59;;;;;;;39.78;15.52;;;;;;;-1.86;75.81;100235.78;4937304;28;20494;-86
2023/12/04 00:12:26;;;;;;;36.88;16.20;;;;;;;-1.92;75.47;100233.38;4922843;28;20065;-87
2023/12/04 00:14:53;;;;;;;36.15;15.40;;;;;;;-1.88;75.29;100229.75;4926823;28;20045;-86
2023/12/04 00:17:20;;;;;;;36.90;16.02;;;;;;;-1.85;74.97;100222.72;4953133;28;20035;-86
2023/12/04 00:19:47;;;;;;;31.92;15.73;;;;;;;-1.93;75.06;100210.84;4926975;28;20113;-86
2023/12/04 00:22:13;;;;;;;37.45;14.98;;;;;;;-1.97;75.06;100203.13;4951302;28;20514;-85
2023/12/04 00:24:40;;;;;;;36.63;15.18;;;;;;;-2.00;74.75;100195.44;4936777;28;20118;-86
2023/12/04 00:27:07;;;;;;;33.88;15.20;;;;;;;-1.97;74.94;100204.88;4922813;28;20043;-86
2023/12/04 00:29:34;;;;;;;36.08;15.52;;;;;;;-2.01;75.21;100198.94;4934934;28;20386;-86
2023/12/04 00:32:01;;;;;;;37.75;15.45;;;;;;;-2.02;75.30;100202.41;4921006;28;20045;-86
2023/12/04 00:34:27;;;;;;;32.30;14.65;;;;;;;-2.02;75.51;100196.38;4952117;28;20062;-86
2023/12/04 00:36:54;;;;;;;37.28;15.15;;;;;;;-2.05;75.60;100191.28;4918397;28;20074;-86
2023/12/04 00:39:21;;;;;;;39.03;15.45;;;;;;;-2.05;75.54;100191.28;4922430;28;20542;-86
2023/12/04 00:41:48;;;;;;;35.28;15.65;;;;;;;-2.05;75.52;100186.91;4936768;28;20070;-86
2023/12/04 00:44:14;;;;;;;43.20;18.40;;;;;;;-2.15;75.30;100185.50;4926244;28;20077;-86
2023/12/04 00:46:41;;;;;;;42.47;18.42;;;;;;;-2.15;75.30;100182.88;4921401;28;20402;-86
2023/12/04 00:49:08;;;;;;;40.78;17.58;;;;;;;-2.16;75.47;100175.13;4932738;28;20047;-86
2023/12/04 00:51:38;;;;;;;43.53;17.73;;;;;;;-2.22;76.00;100176.16;4949838;28;20130;-86
2023/12/04 00:54:05;;;;;;;45.53;17.45;;;;;;;-2.12;75.64;100172.38;4918712;28;20054;-86
2023/12/04 00:56:32;;;;;;;34.15;16.00;;;;;;;-2.10;75.48;100164.53;4924998;28;20042;-86
2023/12/04 00:59:00;;;;;;;38.90;16.67;;;;;;;-2.20;75.20;100161.38;4921455;28;20043;-86
2023/12/04 01:01:27;;;;;;;35.47;15.13;;;;;;;-2.22;75.06;100155.34;4954821;28;20093;-86
2023/12/04 01:03:54;;;;;;;35.03;14.57;;;;;;;-2.22;75.18;100161.41;4939178;28;20561;-86
2023/12/04 01:06:22;;;;;;;33.08;14.48;;;;;;;-2.20;75.25;100162.22;4907850;28;20050;-86
2023/12/04 01:08:50;;;;;;;32.65;14.93;;;;;;;-2.12;75.42;100163.72;4936407;28;20125;-86
2023/12/04 01:11:17;;;;;;;38.38;15.20;;;;;;;-2.13;75.86;100162.88;4938224;28;20127;-87
2023/12/04 01:13:44;;;;;;;35.47;14.57;;;;;;;-2.15;75.63;100159.47;4923853;28;20050;-86
2023/12/04 01:16:10;;;;;;;31.50;15.07;;;;;;;-2.12;74.92;100161.97;4937635;28;20149;-86
2023/12/04 01:18:37;;;;;;;35.78;14.25;;;;;;;-2.17;75.12;100166.47;4923882;28;20062;-86
2023/12/04 01:21:04;;;;;;;37.05;16.38;;;;;;;-2.17;75.01;100155.22;4921001;28;20045;-86
2023/12/04 01:23:31;;;;;;;33.60;15.35;;;;;;;-2.19;74.57;100163.06;4954200;28;20117;-86
2023/12/04 01:25:58;;;;;;;37.42;16.35;;;;;;;-2.20;75.08;100162.22;4935326;28;20051;-86
2023/12/04 01:28:24;;;;;;;35.30;15.45;;;;;;;-2.15;75.22;100156.03;4940752;28;20090;-86
2023/12/04 01:30:51;;;;;;;37.03;15.27;;;;;;;-2.15;74.91;100137.81;4946068;28;20073;-86
2023/12/04 01:33:18;;;;;;;36.97;14.70;;;;;;;-2.31;74.95;100135.69;4918990;28;20070;-86
2023/12/04 01:35:45;;;;;;;31.73;14.93;;;;;;;-2.18;74.32;100138.75;4928807;28;20051;-86
2023/12/04 01:38:11;;;;;;;32.28;14.20;;;;;;;-2.17;74.81;100142.22;4940032;28;20046;-87
2023/12/04 01:40:38;;;;;;;30.92;14.60;;;;;;;-2.17;75.46;100142.22;4928007;28;20062;-86
2023/12/04 01:43:05;;;;;;;34.70;15.05;;;;;;;-2.13;75.42;100138.63;4938723;28;20050;-86
2023/12/04 01:45:32;;;;;;;28.33;13.07;;;;;;;-2.17;75.30;100127.44;4919907;28;20114;-86
2023/12/04 01:47:59;;;;;;;36.28;15.15;;;;;;;-2.19;74.36;100135.31;4936579;28;20402;-86
2023/12/04 01:50:26;;;;;;;29.92;13.80;;;;;;;-2.11;74.44;100131.59;4934405;28;20038;-86
2023/12/04 01:52:53;;;;;;;29.63;14.15;;;;;;;-2.16;74.08;100128.28;4934991;28;20043;-86
2023/12/04 01:55:21;;;;;;;33.05;15.40;;;;;;;-2.14;74.43;100129.09;4950861;28;20047;-85
2023/12/04 01:57:48;;;;;;;32.30;13.73;;;;;;;-2.15;74.45;100125.66;4932272;28;20054;-86
2023/12/04 02:00:15;;;;;;;37.08;15.07;;;;;;;-2.14;74.83;100126.50;4922850;28;20050;-86
2023/12/04 02:02:42;;;;;;;32.72;15.60;;;;;;;-2.09;74.28;100122.84;4951973;28;20149;-86
2023/12/04 02:05:09;;;;;;;36.85;15.65;;;;;;;-2.15;75.29;100107.44;4924652;28;20051;-86
2023/12/04 02:07:39;;;;;;;36.50;14.40;;;;;;;-2.11;74.81;100119.47;4936987;28;20486;-86
2023/12/04 02:10:06;;;;;;;33.47;15.10;;;;;;;-2.22;76.14;100113.72;4942904;28;20046;-86
2023/12/04 02:12:33;;;;;;;31.55;14.63;;;;;;;-2.17;75.20;100113.59;4951759;28;20403;-86
2023/12/04 02:15:00;;;;;;;36.42;14.15;;;;;;;-2.12;75.38;100120.34;4951295;28;20097;-85
2023/12/04 02:17:28;;;;;;;35.30;13.85;;;;;;;-2.14;74.93;100116.09;4932138;28;20055;-86
2023/12/04 02:19:54;;;;;;;37.72;14.95;;;;;;;-2.21;73.99;100107.66;4940482;28;20081;-86
2023/12/04 02:22:21;;;;;;;36.97;14.90;;;;;;;-2.23;74.52;100107.69;4937980;28;20125;-86
2023/12/04 02:24:48;;;;;;;36.60;15.18;;;;;;;-2.18;74.08;100104.94;4936327;28;20050;-85
2023/12/04 02:27:26;;;;;;;32.70;14.23;;;;;;;-2.25;74.04;100111.22;4957341;28;21199;-86
2023/12/04 02:30:00;;;;;;;32.30;13.93;;;;;;;-2.25;74.18;100106.88;4949322;28;20126;-86
2023/12/04 02:32:31;;;;;;;33.60;14.48;;;;;;;-2.21;73.96;100095.50;4948502;28;20038;-86
2023/12/04 02:35:00;;;;;;;34.05;14.77;;;;;;;-2.21;74.17;100097.25;4917831;28;20050;-86
2023/12/04 02:37:27;;;;;;;37.70;14.80;;;;;;;-2.14;74.45;100093.53;4946068;28;20382;-86
2023/12/04 02:39:55;;;;;;;32.22;13.90;;;;;;;-2.21;74.31;100085.09;4934303;28;20085;-86
2023/12/04 02:42:24;;;;;;;42.30;15.75;;;;;;;-2.15;73.82;100086.63;4933450;28;20125;-86
2023/12/04 02:44:51;;;;;;;33.90;15.32;;;;;;;-2.29;74.23;100081.00;4933466;28;20184;-86
2023/12/04 02:47:18;;;;;;;35.30;14.00;;;;;;;-2.28;74.27;100073.16;4934314;28;20054;-86
2023/12/04 02:49:45;;;;;;;34.83;14.85;;;;;;;-2.24;74.06;100063.50;4964246;28;20490;-85
2023/12/04 02:52:12;;;;;;;34.53;15.02;;;;;;;-2.35;73.84;100069.06;4934311;28;20047;-86
2023/12/04 02:54:39;;;;;;;33.72;13.65;;;;;;;-2.24;73.98;100058.31;4952913;28;20557;-86
2023/12/04 02:57:05;;;;;;;29.65;13.65;;;;;;;-2.32;74.12;100055.94;4915547;28;20050;-86
2023/12/04 02:59:32;;;;;;;36.20;13.95;;;;;;;-2.31;74.18;100049.88;4933157;28;20043;-86
2023/12/04 03:01:59;;;;;;;32.85;13.70;;;;;;;-2.29;74.07;100049.78;4921304;28;20049;-85
2023/12/04 03:04:29;;;;;;;32.85;14.07;;;;;;;-2.28;74.07;100049.75;4933940;28;20054;-86
2023/12/04 03:06:57;;;;;;;36.78;15.73;;;;;;;-2.31;74.01;100043.81;4945809;28;20042;-85
2023/12/04 03:09:23;;;;;;;29.33;13.38;;;;;;;-2.35;74.01;100034.41;4968021;28;20047;-85
2023/12/04 03:12:10;;;;;;;33.63;14.07;;;;;;;-2.31;74.16;100026.47;4948032;28;20137;-85
2023/12/04 03:14:37;;;;;;;35.63;14.25;;;;;;;-2.28;74.31;100020.31;4919721;28;20482;-86
2023/12/04 03:17:03;;;;;;;31.63;14.13;;;;;;;-2.28;74.41;100015.09;4947180;28;20074;-85
2023/12/04 03:19:30;;;;;;;36.47;15.38;;;;;;;-2.25;74.16;100013.25;4939407;28;20038;-85
2023/12/04 03:21:57;;;;;;;31.70;13.77;;;;;;;-2.24;74.09;100006.28;4929355;28;20070;-86
2023/12/04 03:24:24;;;;;;;33.85;14.43;;;;;;;-2.27;74.04;99999.44;4956306;28;20105;-86
2023/12/04 03:26:50;;;;;;;32.88;14.10;;;;;;;-2.30;74.22;99998.69;4925491;28;20070;-87
2023/12/04 03:29:17;;;;;;;40.45;15.55;;;;;;;-2.27;74.54;99995.97;4928076;28;20055;-86
2023/12/04 03:31:44;;;;;;;28.20;13.35;;;;;;;-2.32;74.68;99988.31;4956244;28;20453;-86
2023/12/04 03:34:11;;;;;;;35.22;13.45;;;;;;;-2.31;74.79;99992.66;4923404;28;20474;-86
2023/12/04 03:36:38;;;;;;;26.85;12.93;;;;;;;-2.22;74.33;99983.66;4930100;28;20501;-86
2023/12/04 03:39:05;;;;;;;36.03;14.48;;;;;;;-2.28;73.99;99984.72;4939677;28;20101;-86
2023/12/04 03:41:31;;;;;;;33.65;13.95;;;;;;;-2.25;73.87;99986.38;4942383;28;20057;-85
2023/12/04 03:43:58;;;;;;;30.92;13.43;;;;;;;-2.22;73.66;99981.91;4926735;28;20055;-86
2023/12/04 03:46:25;;;;;;;37.55;14.50;;;;;;;-2.23;73.79;99982.00;4950663;28;20521;-85
2023/12/04 03:48:52;;;;;;;34.20;13.68;;;;;;;-2.28;73.88;99963.09;4970228;28;20050;-86
2023/12/04 03:51:19;;;;;;;30.98;13.13;;;;;;;-2.22;73.56;99965.47;4944473;28;20402;-85
2023/12/04 03:53:46;;;;;;;30.88;13.00;;;;;;;-2.24;73.61;99959.47;4941169;28;20489;-86
2023/12/04 03:56:12;;;;;;;30.92;13.32;;;;;;;-2.21;73.68;99955.03;4938544;28;20045;-85
2023/12/04 03:58:39;;;;;;;31.70;14.15;;;;;;;-2.27;73.42;99950.00;4933232;28;20149;-86
2023/12/04 04:01:06;;;;;;;30.95;12.57;;;;;;;-2.20;73.70;99955.88;4922953;28;20478;-86
2023/12/04 04:03:33;;;;;;;25.23;12.23;;;;;;;-2.33;73.61;99944.19;4925906;28;20053;-86
2023/12/04 04:06:00;;;;;;;32.67;13.80;;;;;;;-2.29;73.61;99946.63;4942395;28;20047;-85
2023/12/04 04:08:26;;;;;;;30.90;13.70;;;;;;;-2.29;73.86;99954.44;4954411;28;20047;-86
2023/12/04 04:10:53;;;;;;;32.30;12.88;;;;;;;-2.31;73.08;99950.19;4925508;28;20121;-86
2023/12/04 04:13:20;;;;;;;33.92;12.73;;;;;;;-2.30;73.97;99951.88;4939289;28;20058;-87
2023/12/04 04:15:47;;;;;;;29.60;12.77;;;;;;;-2.24;73.70;99941.25;4951777;28;20042;-86
2023/12/04 04:18:14;;;;;;;31.05;12.77;;;;;;;-2.28;73.47;99935.31;4944388;28;20043;-86
2023/12/04 04:20:41;;;;;;;31.88;13.10;;;;;;;-2.22;73.67;99932.50;4940202;28;20558;-88
2023/12/04 04:23:07;;;;;;;28.13;13.02;;;;;;;-2.20;74.16;99932.44;4931474;28;20779;-87
2023/12/04 04:25:34;;;;;;;28.90;12.65;;;;;;;-2.22;74.49;99929.88;4958513;28;20047;-87
2023/12/04 04:28:01;;;;;;;27.40;13.60;;;;;;;-2.23;74.58;99929.97;4957426;28;20101;-86
2023/12/04 04:30:28;;;;;;;32.00;12.40;;;;;;;-2.17;74.39;99928.91;4936285;28;20049;-86
2023/12/04 04:32:54;;;;;;;27.38;11.52;;;;;;;-2.20;74.02;99925.50;4925706;28;20101;-87
2023/12/04 04:35:21;;;;;;;32.95;14.07;;;;;;;-2.16;74.47;99935.78;4919301;28;20038;-86
2023/12/04 04:37:48;;;;;;;32.40;13.75;;;;;;;-2.13;74.92;99935.69;4932981;28;20137;-87
2023/12/04 04:40:17;;;;;;;25.77;11.45;;;;;;;-2.22;75.91;99929.88;4940358;28;20039;-87
2023/12/04 04:42:44;;;;;;;28.58;12.88;;;;;;;-2.23;76.51;99928.22;4913076;28;20121;-87
2023/12/04 04:45:11;;;;;;;28.42;12.15;;;;;;;-2.27;77.12;99929.19;4939066;28;20047;-87
2023/12/04 04:47:38;;;;;;;25.35;10.75;;;;;;;-2.21;76.68;99929.00;4950856;28;20157;-87
2023/12/04 04:50:05;;;;;;;27.63;11.85;;;;;;;-2.33;77.16;99929.41;4938155;28;20474;-86
2023/12/04 04:52:32;;;;;;;30.15;13.02;;;;;;;-2.24;77.21;99925.66;4952095;28;20398;-86
2023/12/04 04:54:59;;;;;;;23.83;12.07;;;;;;;-2.22;77.61;99929.03;4930112;28;20398;-87
2023/12/04 04:57:26;;;;;;;27.75;12.10;;;;;;;-2.23;77.28;99932.56;4949690;28;20043;-87
2023/12/04 04:59:52;;;;;;;26.92;11.93;;;;;;;-2.21;77.10;99942.00;4935360;28;20379;-87
2023/12/04 05:02:19;;;;;;;29.27;12.98;;;;;;;-2.21;77.24;99931.59;4918702;28;20459;-87
2023/12/04 05:04:46;;;;;;;24.10;11.85;;;;;;;-2.24;77.94;99931.72;4921729;28;20053;-84
2023/12/04 05:07:13;;;;;;;25.23;10.88;;;;;;;-2.23;77.99;99937.78;4950024;28;20046;-83
2023/12/04 05:09:40;;;;;;;28.13;12.25;;;;;;;-2.22;77.85;99932.50;4949638;28;20050;-85
2023/12/04 05:12:07;;;;;;;28.73;13.05;;;;;;;-2.29;78.48;99925.81;4950644;28;20051;-87
2023/12/04 05:14:33;;;;;;;30.25;12.70;;;;;;;-2.20;78.18;99932.44;4936331;28;20051;-87
2023/12/04 05:17:00;;;;;;;26.58;10.95;;;;;;;-2.23;78.36;99922.16;4941613;28;20045;-88
2023/12/04 05:19:27;;;;;;;26.65;11.98;;;;;;;-2.26;78.17;99917.06;4950994;28;20047;-87
2023/12/04 05:21:54;;;;;;;31.50;12.75;;;;;;;-2.23;77.77;99906.56;4938076;28;20066;-86
2023/12/04 05:24:21;;;;;;;32.80;17.70;;;;;;;-2.22;77.12;99911.69;4920534;28;20042;-87
2023/12/04 05:26:47;;;;;;;34.80;14.57;;;;;;;-2.17;76.36;99911.53;4922694;28;20055;-85
2023/12/04 05:29:14;;;;;;;23.35;11.65;;;;;;;-2.13;75.80;99918.34;4955691;28;20145;-89
2023/12/04 05:31:41;;;;;;;31.63;13.45;;;;;;;-2.11;76.10;99910.47;4920358;28;20043;-85
2023/12/04 05:34:08;;;;;;;26.48;10.95;;;;;;;-2.12;75.42;99907.00;4952577;28;20046;-85
2023/12/04 05:36:34;;;;;;;29.42;11.55;;;;;;;-2.12;74.97;99893.16;4951789;28;20437;-85
2023/12/04 05:39:01;;;;;;;24.05;11.32;;;;;;;-2.11;74.71;99887.91;4925081;28;20051;-85
2023/12/04 05:41:28;;;;;;;25.80;12.18;;;;;;;-2.04;74.40;99888.53;4949965;28;20450;-85
2023/12/04 05:43:55;;;;;;;26.25;10.38;;;;;;;-2.11;73.75;99884.44;4915559;28;20125;-85
2023/12/04 05:46:22;;;;;;;23.30;11.10;;;;;;;-2.12;73.69;99882.75;4964103;28;20093;-84
2023/12/04 05:48:49;;;;;;;26.58;11.10;;;;;;;-2.17;73.78;99874.25;4937348;28;20050;-85
2023/12/04 05:51:18;;;;;;;24.48;10.55;;;;;;;-2.08;73.99;99877.41;4930951;28;20046;-83
2023/12/04 05:53:45;;;;;;;24.83;10.40;;;;;;;-2.13;73.87;99868.91;4947465;28;20050;-83
2023/12/04 05:56:11;;;;;;;25.60;11.23;;;;;;;-2.11;73.72;99869.72;4927041;28;20517;-83
2023/12/04 05:58:38;;;;;;;23.67;10.38;;;;;;;-2.13;73.46;99860.25;4935428;28;20549;-83
2023/12/04 06:01:06;;;;;;;23.60;11.15;;;;;;;-2.09;74.30;99867.88;4925543;28;20047;-83
2023/12/04 06:03:33;;;;;;;23.75;10.98;;;;;;;-2.06;74.26;99873.00;4936530;28;20138;-83
2023/12/04 06:06:00;;;;;;;22.98;11.13;;;;;;;-2.07;73.89;99871.28;4916670;28;20050;-83
2023/12/04 06:08:30;;;;;;;27.38;10.52;;;;;;;-2.09;73.80;99867.88;4933921;28;20117;-83
2023/12/04 06:10:57;;;;;;;22.85;10.48;;;;;;;-2.04;73.92;99872.91;4930591;28;20070;-83
2023/12/04 06:13:24;;;;;;;22.65;9.80;;;;;;;-2.06;73.40;99874.72;4951285;28;20049;-84
2023/12/04 06:15:52;;;;;;;23.10;10.68;;;;;;;-2.06;73.34;99874.72;4940391;28;20047;-83
2023/12/04 06:18:20;;;;;;;23.23;10.05;;;;;;;-2.05;72.93;99874.69;4921847;28;20054;-83
2023/12/04 06:20:47;;;;;;;25.25;9.90;;;;;;;-2.07;72.90;99873.88;4930668;28;21124;-83
2023/12/04 06:23:14;;;;;;;24.35;11.07;;;;;;;-2.05;73.21;99879.03;4948786;28;20050;-83
2023/12/04 06:25:41;;;;;;;23.33;10.38;;;;;;;-2.08;72.89;99880.00;4938423;28;20047;-83
2023/12/04 06:28:08;;;;;;;25.95;10.52;;;;;;;-2.09;73.00;99882.63;4955239;28;20101;-83
2023/12/04 06:30:35;;;;;;;22.67;9.73;;;;;;;-2.11;72.59;99881.84;4966772;28;20569;-83
2023/12/04 06:33:02;;;;;;;20.58;9.40;;;;;;;-2.08;72.81;99885.19;4948907;28;20054;-83
2023/12/04 06:35:29;;;;;;;22.25;9.63;;;;;;;-2.10;73.73;99888.75;4946257;28;20081;-80
2023/12/04 06:38:01;;;;;;;23.65;10.35;;;;;;;-2.05;73.62;99887.69;4946830;28;20060;-80
2023/12/04 06:40:28;;;;;;;30.42;11.85;;;;;;;-2.01;73.12;99888.41;4947678;28;20050;-80
2023/12/04 06:42:55;;;;;;;22.95;9.98;;;;;;;-2.02;73.01;99889.31;4935263;28;20046;-80
2023/12/04 06:45:22;;;;;;;23.85;10.98;;;;;;;-2.06;74.19;99885.13;4951654;28;20047;-80
2023/12/04 06:47:50;;;;;;;18.63;9.13;;;;;;;-2.10;75.02;99887.00;4933461;28;20390;-80
2023/12/04 06:50:17;;;;;;;21.42;10.05;;;;;;;-2.12;75.11;99883.59;4930428;28;20066;-80
2023/12/04 06:52:43;;;;;;;31.50;15.13;;;;;;;-2.16;74.44;99883.75;4937307;28;20046;-80
2023/12/04 06:55:11;;;;;;;25.35;11.32;;;;;;;-2.13;73.97;99881.91;4948145;28;20547;-80
2023/12/04 06:57:38;;;;;;;32.90;12.57;;;;;;;-2.22;74.31;99874.44;4934109;28;20102;-80
2023/12/04 07:00:12;;;;;;;29.48;11.43;;;;;;;-2.16;74.59;99873.34;4948720;28;20490;-80
2023/12/04 07:02:49;;;;;;;27.40;12.18;;;;;;;-2.18;75.06;99878.63;4903128;28;20035;-80
2023/12/04 07:05:17;;;;;;;24.15;10.73;;;;;;;-2.20;76.47;99875.22;4934261;28;20050;-80
2023/12/04 07:07:43;;;;;;;27.35;11.75;;;;;;;-2.23;76.55;99870.13;4952134;28;20055;-80
2023/12/04 07:10:14;;;;;;;28.13;12.43;;;;;;;-2.22;76.57;99870.06;4938784;28;20047;-80
2023/12/04 07:12:42;;;;;;;28.25;12.27;;;;;;;-2.31;77.38;99869.56;4948830;28;20054;-80
2023/12/04 07:15:09;;;;;;;25.80;10.60;;;;;;;-2.28;77.48;99859.88;4947797;28;20490;-80
2023/12/04 07:17:37;;;;;;;26.83;11.90;;;;;;;-2.26;76.41;99852.03;4913300;28;20058;-80
2023/12/04 07:20:08;;;;;;;22.33;11.32;;;;;;;-2.26;76.43;99847.69;4937532;28;20043;-80
2023/12/04 07:22:34;;;;;;;25.27;10.70;;;;;;;-2.29;76.25;99837.41;4944212;28;20410;-80
2023/12/04 07:25:06;;;;;;;25.83;11.70;;;;;;;-2.35;74.92;99835.00;4934784;28;20058;-80
2023/12/04 07:27:34;;;;;;;25.55;12.55;;;;;;;-2.32;75.09;99828.84;4962854;28;20039;-80
2023/12/04 07:30:02;;;;;;;24.92;11.35;;;;;;;-2.43;74.48;99821.44;4947450;28;20121;-79
2023/12/04 07:32:32;;;;;;;25.00;11.98;;;;;;;-2.37;74.18;99805.59;4947326;28;20054;-80
2023/12/04 07:34:59;;;;;;;24.92;10.57;;;;;;;-2.35;74.15;99800.34;4922232;28;20055;-79
2023/12/04 07:37:26;;;;;;;23.67;11.52;;;;;;;-2.43;73.57;99788.47;4947560;28;20129;-80
2023/12/04 07:39:53;;;;;;;23.95;10.27;;;;;;;-2.33;74.07;99778.59;4937302;28;20113;-80
2023/12/04 07:42:19;;;;;;;26.40;11.38;;;;;;;-2.33;73.68;99788.16;4931842;28;20640;-80
2023/12/04 07:44:47;;;;;;;28.23;10.95;;;;;;;-2.37;73.74;99803.00;4931115;28;20118;-80
2023/12/04 07:47:14;;;;;;;27.60;11.85;;;;;;;-2.45;73.67;99799.81;4960165;28;20074;-80
2023/12/04 07:49:41;;;;;;;26.48;11.45;;;;;;;-2.37;73.46;99797.78;4932429;28;20409;-80
2023/12/04 07:52:08;;;;;;;23.85;11.57;;;;;;;-2.37;73.44;99803.00;4947114;28;20043;-80
2023/12/04 07:54:35;;;;;;;24.95;10.77;;;;;;;-2.33;73.22;99807.19;4936130;28;20482;-80
2023/12/04 07:57:03;;;;;;;55.08;16.80;;;;;;;-2.29;72.97;99808.78;4961612;28;20094;-80
2023/12/04 07:59:30;;;;;;;56.22;16.10;;;;;;;-2.26;72.97;99802.63;4946713;28;20109;-80
2023/12/04 08:01:57;;;;;;;49.60;16.58;;;;;;;-2.25;72.80;99804.31;4950433;28;20122;-80
2023/12/04 08:04:24;;;;;;;31.02;13.55;;;;;;;-2.30;73.09;99801.03;4941983;28;20127;-80
2023/12/04 08:06:51;;;;;;;24.58;11.98;;;;;;;-2.29;72.63;99798.38;4943474;28;20133;-80
2023/12/04 08:09:17;;;;;;;28.48;11.45;;;;;;;-2.25;72.61;99792.16;4939977;28;20270;-80
2023/12/04 08:11:45;;;;;;;40.28;11.13;;;;;;;-2.20;72.71;99789.38;4935348;28;20126;-80
2023/12/04 08:14:12;;;;;;;28.40;12.07;;;;;;;-2.27;72.58;99796.56;4950318;28;20114;-80
2023/12/04 08:16:39;;;;;;;26.38;11.60;;;;;;;-2.21;73.12;99785.09;4951007;28;20055;-80
2023/12/04 08:19:05;;;;;;;25.83;11.82;;;;;;;-2.12;72.84;99784.75;4951721;28;20039;-80
2023/12/04 08:21:32;;;;;;;22.50;11.15;;;;;;;-2.17;73.18;99767.63;4952069;28;20157;-80
2023/12/04 08:23:59;;;;;;;22.58;10.88;;;;;;;-2.15;73.35;99766.66;4923007;28;20070;-80
2023/12/04 08:26:26;;;;;;;25.90;11.60;;;;;;;-2.21;73.43;99767.75;4964964;28;20043;-80
2023/12/04 08:28:52;;;;;;;26.52;11.07;;;;;;;-2.18;73.19;99766.78;4935421;28;20046;-81
2023/12/04 08:31:19;;;;;;;27.85;12.38;;;;;;;-2.16;73.18;99753.69;4953562;28;20574;-80
2023/12/04 08:33:46;;;;;;;31.88;13.98;;;;;;;-2.37;73.68;99755.34;4932996;28;20122;-80
2023/12/04 08:36:13;;;;;;;30.20;13.40;;;;;;;-2.37;73.21;99748.38;4916973;28;20058;-80
2023/12/04 08:38:40;;;;;;;27.65;11.43;;;;;;;-2.26;73.25;99745.41;4949630;28;20058;-80
2023/12/04 08:41:07;;;;;;;30.15;12.73;;;;;;;-2.36;73.04;99746.66;4933146;28;20062;-80
2023/12/04 08:43:33;;;;;;;25.23;12.57;;;;;;;-2.24;73.59;99756.56;4943599;28;20526;-80
2023/12/04 08:46:00;;;;;;;30.75;13.00;;;;;;;-2.18;72.96;99753.78;4936555;28;20046;-80
2023/12/04 08:48:27;;;;;;;21.95;10.50;;;;;;;-2.09;72.96;99755.16;4931598;28;20050;-80
2023/12/04 08:50:54;;;;;;;22.50;10.85;;;;;;;-2.15;72.46;99753.66;4917910;28;20058;-80
2023/12/04 08:53:21;;;;;;;28.65;11.18;;;;;;;-2.06;72.79;99752.44;4924781;28;20634;-80
2023/12/04 08:55:48;;;;;;;20.02;9.13;;;;;;;-2.06;72.38;99747.22;4954499;28;20494;-80
2023/12/04 08:58:15;;;;;;;27.02;11.65;;;;;;;-2.02;72.73;99741.88;4925842;28;20049;-80
2023/12/04 09:00:42;;;;;;;24.55;11.13;;;;;;;-1.99;72.93;99744.34;4948370;28;20062;-80
2023/12/04 09:03:10;;;;;;;20.70;10.00;;;;;;;-1.97;72.62;99746.91;4947758;28;20051;-80
2023/12/04 09:05:50;;;;;;;25.42;11.15;;;;;;;-1.93;73.24;99739.81;4950103;28;20070;-81
2023/12/04 09:08:21;;;;;;;23.70;10.35;;;;;;;-1.88;73.01;99750.88;4950110;28;20490;-80
2023/12/04 09:11:05;;;;;;;22.70;11.45;;;;;;;-1.83;73.31;99754.16;4935793;28;20424;-80
2023/12/04 09:13:35;;;;;;;27.90;11.85;;;;;;;-1.78;73.18;99766.09;4951968;28;20046;-83
2023/12/04 09:16:02;;;;;;;24.90;11.32;;;;;;;-1.73;72.95;99760.72;4917205;28;20043;-80
2023/12/04 09:18:28;;;;;;;20.95;9.77;;;;;;;-1.74;73.10;99766.81;4964146;28;20050;-80
2023/12/04 09:20:55;;;;;;;19.05;9.60;;;;;;;-1.69;72.85;99759.69;4950987;28;20491;-80
2023/12/04 09:23:22;;;;;;;23.10;11.18;;;;;;;-1.67;72.99;99746.63;4938346;28;20375;-80
2023/12/04 09:25:50;;;;;;;21.95;10.70;;;;;;;-1.67;72.96;99746.63;4951197;28;20649;-80
2023/12/04 09:28:17;;;;;;;28.73;10.68;;;;;;;-1.63;72.71;99741.22;4937177;28;20109;-80
2023/12/04 09:30:44;;;;;;;25.23;10.95;;;;;;;-1.61;73.20;99739.38;4932372;28;20054;-80
2023/12/04 09:33:11;;;;;;;26.30;11.40;;;;;;;-1.60;73.14;99735.06;4934920;28;20531;-80
2023/12/04 09:35:38;;;;;;;37.50;12.13;;;;;;;-1.60;73.20;99746.31;4950549;28;20139;-80
2023/12/04 09:38:05;;;;;;;26.48;11.15;;;;;;;-1.55;73.11;99756.53;4946512;28;20038;-80
2023/12/04 09:40:32;;;;;;;25.60;11.65;;;;;;;-1.56;73.16;99728.78;4951910;28;20046;-80
2023/12/04 09:42:58;;;;;;;26.02;11.15;;;;;;;-1.62;74.22;99729.91;4948595;28;20138;-80
2023/12/04 09:45:26;;;;;;;23.42;10.93;;;;;;;-1.58;73.15;99749.72;4962018;28;20093;-80
2023/12/04 09:47:54;;;;;;;23.80;10.57;;;;;;;-1.61;73.55;99741.16;4948303;28;20462;-80
2023/12/04 09:50:22;;;;;;;24.70;10.52;;;;;;;-1.62;73.49;99729.91;4964206;28;20050;-80
2023/12/04 09:52:50;;;;;;;22.33;11.05;;;;;;;-1.58;73.50;99726.28;4934647;28;20421;-80
2023/12/04 09:55:17;;;;;;;28.67;11.30;;;;;;;-1.57;73.27;99733.16;4934851;28;20129;-81
2023/12/04 09:57:45;;;;;;;24.42;11.18;;;;;;;-1.55;73.35;99730.50;4948621;28;20055;-80
2023/12/04 10:00:13;;;;;;;22.23;11.00;;;;;;;-1.54;73.28;99726.97;4916769;28;20062;-80
2023/12/04 10:02:41;;;;;;;18.70;9.98;;;;;;;-1.51;73.38;99715.59;4948376;28;20057;-81
2023/12/04 10:05:08;;;;;;;22.95;10.70;;;;;;;-1.49;73.19;99721.59;4931775;28;20050;-80
2023/12/04 10:07:36;;;;;;;24.60;10.18;;;;;;;-1.45;73.18;99707.53;4938327;28;20811;-80
2023/12/04 10:10:07;;;;;;;23.52;10.98;;;;;;;-1.51;73.57;99685.19;4961617;28;20046;-80
2023/12/04 10:12:35;;;;;;;30.98;12.15;;;;;;;-1.55;74.08;99679.28;4946539;28;20507;-80
2023/12/04 10:15:10;;;;;;;23.38;10.02;;;;;;;-1.52;73.68;99687.88;4963448;28;20069;-81
2023/12/04 10:17:41;;;;;;;21.48;9.63;;;;;;;-1.53;73.74;99689.59;4955497;28;20055;-81
2023/12/04 10:20:12;;;;;;;23.73;10.73;;;;;;;-1.48;73.09;99685.06;4934794;28;20051;-80
2023/12/04 10:22:52;;;;;;;23.27;10.07;;;;;;;-1.45;73.61;99690.16;4929416;28;20051;-80
2023/12/04 10:25:19;;;;;;;25.40;9.90;;;;;;;-1.43;73.39;99693.53;4943797;28;20441;-80
2023/12/04 10:27:47;;;;;;;25.33;10.02;;;;;;;-1.38;73.44;99682.91;4952917;28;20577;-80
2023/12/04 10:30:28;;;;;;;24.17;10.65;;;;;;;-1.40;73.50;99683.00;4932426;28;20039;-81
2023/12/04 10:33:00;;;;;;;20.90;9.52;;;;;;;-1.34;73.12;99682.72;4946619;28;20050;-81
2023/12/04 10:35:32;;;;;;;21.45;9.80;;;;;;;-1.37;73.10;99677.66;4946860;28;20046;-81
2023/12/04 10:37:59;;;;;;;24.27;10.68;;;;;;;-1.36;73.24;99670.69;4944890;28;20049;-80
2023/12/04 10:40:27;;;;;;;19.25;10.35;;;;;;;-1.33;73.39;99674.00;4946713;28;20618;-81
2023/12/04 10:43:10;;;;;;;24.30;9.57;;;;;;;-1.33;73.12;99675.75;4947909;28;20483;-81
2023/12/04 10:45:38;;;;;;;18.20;9.20;;;;;;;-1.32;73.20;99670.50;4946179;28;20127;-81
2023/12/04 10:48:05;;;;;;;22.08;9.30;;;;;;;-1.28;73.03;99662.53;4916779;28;20462;-80
2023/12/04 10:50:40;;;;;;;22.73;9.25;;;;;;;-1.27;73.09;99657.28;4961627;28;20118;-81
2023/12/04 10:53:09;;;;;;;21.42;9.20;;;;;;;-1.25;73.00;99658.03;4947333;28;20047;-81
2023/12/04 10:55:36;;;;;;;20.48;8.95;;;;;;;-1.22;72.69;99659.66;4937478;28;20043;-81
2023/12/04 10:58:09;;;;;;;21.88;8.73;;;;;;;-1.21;72.28;99657.00;4945801;28;20053;-81
2023/12/04 11:00:45;;;;;;;18.00;9.18;;;;;;;-1.17;72.12;99655.09;4962389;28;20074;-81
2023/12/04 11:03:22;;;;;;;20.52;10.13;;;;;;;-1.22;72.05;99663.16;4934162;28;20134;-81
2023/12/04 11:05:53;;;;;;;20.98;8.75;;;;;;;-1.17;72.36;99662.91;4950361;28;20043;-80
2023/12/04 11:08:20;;;;;;;20.88;9.40;;;;;;;-1.14;72.56;99662.81;4931418;28;20054;-81
2023/12/04 11:10:56;;;;;;;24.67;9.95;;;;;;;-1.13;72.49;99661.88;4929906;28;20110;-80
2023/12/04 11:13:32;;;;;;;19.98;9.57;;;;;;;-1.10;72.38;99664.34;4948465;28;20102;-81
2023/12/04 11:16:07;;;;;;;22.08;9.38;;;;;;;-1.08;72.50;99659.09;4961214;28;20494;-81
2023/12/04 11:18:39;;;;;;;18.30;9.13;;;;;;;-1.06;72.73;99652.06;4960766;28;20402;-81